Time;durP1;ratioP1;P1;durP2;ratioP2;P2;SDS_P1;SDS_P2;PMS_P1;PMS_P2;Temp;Humidity;BMP_temperature;BMP_pressure;BME280_temperature;BME280_humidity;BME280_pressure;Samples;Min_cycle;Max_cycle;Signal;HPM_P1;HPM_P2
2023/08/04 00:02:20;;;;;;;2.35;1.70;;;26.50;91.80;;;;;;4975642;28;20122;-77
2023/08/04 00:04:46;;;;;;;3.05;1.77;;;26.40;91.90;;;;;;4974052;28;20361;-76
2023/08/04 00:07:12;;;;;;;3.53;2.10;;;26.30;91.90;;;;;;4976130;28;20031;-77
2023/08/04 00:09:37;;;;;;;2.30;1.55;;;26.40;92.10;;;;;;4974707;28;20039;-76
2023/08/04 00:12:04;;;;;;;3.17;1.95;;;26.40;92.20;;;;;;4974894;28;20051;-76
2023/08/04 00:14:29;;;;;;;3.55;2.20;;;26.40;92.10;;;;;;4974878;28;20089;-76
2023/08/04 00:16:55;;;;;;;4.13;1.75;;;26.40;92.10;;;;;;4958146;28;20035;-77
2023/08/04 00:19:20;;;;;;;4.25;2.00;;;26.40;92.10;;;;;;4971349;28;20500;-75
2023/08/04 00:21:46;;;;;;;3.65;1.60;;;26.40;92.10;;;;;;4974888;28;20118;-75
2023/08/04 00:24:12;;;;;;;2.78;1.60;;;26.40;92.10;;;;;;4958438;28;20031;-75
2023/08/04 00:26:37;;;;;;;2.45;1.55;;;26.40;92.10;;;;;;4964761;28;20475;-76
2023/08/04 00:29:03;;;;;;;2.67;1.50;;;26.40;92.00;;;;;;4955598;28;20058;-77
2023/08/04 00:31:29;;;;;;;3.65;1.85;;;26.40;92.10;;;;;;4966690;28;20119;-76
2023/08/04 00:33:55;;;;;;;2.65;1.67;;;26.40;92.00;;;;;;4944171;28;20034;-77
2023/08/04 00:36:21;;;;;;;4.68;1.88;;;26.40;92.00;;;;;;4970889;28;20093;-75
2023/08/04 00:38:46;;;;;;;3.10;1.70;;;26.40;92.00;;;;;;4939476;29;20035;-76
2023/08/04 00:41:12;;;;;;;3.60;1.60;;;26.30;91.90;;;;;;4970706;28;20461;-76
2023/08/04 00:43:38;;;;;;;2.53;1.75;;;26.20;91.80;;;;;;4957804;28;20023;-77
2023/08/04 00:46:04;;;;;;;4.35;1.85;;;26.30;91.80;;;;;;4973926;28;20057;-76
2023/08/04 00:48:29;;;;;;;4.55;1.85;;;26.30;91.90;;;;;;4969670;28;20035;-76
2023/08/04 00:50:55;;;;;;;4.65;1.55;;;26.30;91.80;;;;;;4973709;28;20031;-76
2023/08/04 00:53:21;;;;;;;2.92;1.60;;;26.20;91.70;;;;;;4960038;28;20469;-75
2023/08/04 00:55:49;;;;;;;3.47;1.75;;;26.30;91.80;;;;;;4965893;28;20039;-76
2023/08/04 00:58:14;;;;;;;2.92;1.92;;;26.30;91.80;;;;;;4955556;28;20030;-76
2023/08/04 01:00:40;;;;;;;2.45;1.45;;;26.30;91.80;;;;;;4973377;28;20026;-75
2023/08/04 01:03:06;;;;;;;3.33;1.48;;;26.20;91.70;;;;;;4971471;28;20429;-74
2023/08/04 01:05:40;;;;;;;3.20;1.80;;;26.20;91.60;;;;;;4942837;28;20033;-76
2023/08/04 01:08:22;;;;;;;1.48;1.08;;;26.20;91.60;;;;;;4958553;28;20138;-76
2023/08/04 01:10:57;;;;;;;2.25;1.30;;;26.20;91.50;;;;;;4969723;28;20027;-76
2023/08/04 01:13:24;;;;;;;3.97;1.58;;;26.20;91.60;;;;;;4961230;28;20058;-75
2023/08/04 01:15:52;;;;;;;2.00;1.30;;;26.20;91.60;;;;;;4961757;28;20412;-76
2023/08/04 01:18:21;;;;;;;2.50;1.40;;;26.20;91.60;;;;;;4955909;28;20064;-75
2023/08/04 01:20:48;;;;;;;2.05;1.13;;;26.20;91.50;;;;;;4955179;28;20078;-75
2023/08/04 01:23:14;;;;;;;2.05;1.13;;;26.20;91.40;;;;;;4974815;28;20034;-76
2023/08/04 01:25:40;;;;;;;1.85;1.27;;;26.20;91.40;;;;;;4961364;28;20173;-76
2023/08/04 01:28:12;;;;;;;1.80;1.10;;;26.10;91.40;;;;;;4946433;28;20083;-76
2023/08/04 01:30:39;;;;;;;5.32;1.10;;;26.10;91.50;;;;;;4960139;28;20445;-74
2023/08/04 01:33:05;;;;;;;2.95;1.30;;;26.10;91.50;;;;;;4972886;28;20046;-75
2023/08/04 01:35:31;;;;;;;1.90;1.30;;;26.10;91.50;;;;;;4968142;28;20027;-74
2023/08/04 01:37:56;;;;;;;1.70;1.25;;;26.10;91.50;;;;;;4961230;28;20042;-74
2023/08/04 01:40:22;;;;;;;2.25;1.42;;;26.10;91.60;;;;;;4969375;28;20029;-74
2023/08/04 01:42:48;;;;;;;1.92;1.23;;;26.10;91.60;;;;;;4971407;28;20118;-74
2023/08/04 01:45:14;;;;;;;3.08;1.00;;;26.10;91.60;;;;;;4970545;28;20143;-74
2023/08/04 01:47:39;;;;;;;2.17;1.33;;;26.10;91.60;;;;;;4968506;28;20031;-74
2023/08/04 01:50:09;;;;;;;1.30;1.15;;;26.00;91.60;;;;;;4957299;28;20394;-75
2023/08/04 01:52:35;;;;;;;1.80;1.27;;;26.10;91.70;;;;;;4968394;28;20039;-75
2023/08/04 01:55:00;;;;;;;1.40;1.13;;;26.00;91.60;;;;;;4958300;28;20023;-75
2023/08/04 01:57:26;;;;;;;1.30;1.00;;;26.00;91.60;;;;;;4961442;28;20046;-75
2023/08/04 01:59:52;;;;;;;1.70;1.13;;;26.10;91.60;;;;;;4966250;28;20067;-74
2023/08/04 02:02:17;;;;;;;3.20;1.40;;;26.00;91.60;;;;;;4975710;28;20030;-75
2023/08/04 02:04:43;;;;;;;2.95;1.50;;;26.00;91.60;;;;;;4978047;28;20026;-76
2023/08/04 02:07:09;;;;;;;2.75;1.38;;;26.00;91.70;;;;;;4962321;28;20098;-76
2023/08/04 02:09:34;;;;;;;3.72;1.80;;;25.90;91.90;;;;;;4962983;28;20039;-76
2023/08/04 02:12:00;;;;;;;2.35;1.48;;;25.90;92.00;;;;;;4977091;28;20055;-75
2023/08/04 02:14:29;;;;;;;2.47;1.52;;;25.80;92.20;;;;;;4950829;28;20109;-75
2023/08/04 02:16:56;;;;;;;3.85;2.28;;;25.70;92.50;;;;;;4964571;28;20035;-75
2023/08/04 02:19:22;;;;;;;4.38;1.85;;;25.60;92.60;;;;;;4969115;28;20023;-75
2023/08/04 02:21:48;;;;;;;3.08;1.95;;;25.50;92.80;;;;;;4964475;28;20385;-76
2023/08/04 02:24:14;;;;;;;4.65;1.95;;;25.50;93.00;;;;;;4963732;28;20053;-76
2023/08/04 02:26:40;;;;;;;2.15;1.48;;;25.40;93.10;;;;;;4966619;28;20454;-76
2023/08/04 02:29:06;;;;;;;3.53;1.48;;;25.40;93.10;;;;;;4974480;28;20617;-77
2023/08/04 02:31:32;;;;;;;3.88;1.63;;;25.40;93.00;;;;;;4971600;28;20058;-77
2023/08/04 02:33:59;;;;;;;5.18;1.83;;;25.30;93.20;;;;;;4958691;28;20386;-77
2023/08/04 02:36:25;;;;;;;2.10;1.50;;;25.30;93.30;;;;;;4959990;28;20148;-76
2023/08/04 02:38:51;;;;;;;2.13;1.45;;;25.30;93.20;;;;;;4971040;28;20023;-76
2023/08/04 02:41:17;;;;;;;2.83;1.65;;;25.30;93.10;;;;;;4969229;28;20358;-77
2023/08/04 02:43:42;;;;;;;1.58;1.30;;;25.30;93.10;;;;;;4947276;29;20036;-77
2023/08/04 02:46:12;;;;;;;4.55;1.77;;;25.30;93.10;;;;;;4974509;28;20109;-77
2023/08/04 02:48:39;;;;;;;;;;;25.30;93.10;;;;;;4964598;28;20062;-77
2023/08/04 02:51:12;;;;;;;2.92;1.50;;;25.30;93.20;;;;;;4972914;28;19910;-76
2023/08/04 02:53:42;;;;;;;3.35;1.58;;;25.20;93.20;;;;;;4966726;28;20026;-76
2023/08/04 02:56:09;;;;;;;;;;;25.20;93.30;;;;;;4975070;28;20027;-77
2023/08/04 02:58:35;;;;;;;2.85;1.88;;;25.10;93.30;;;;;;4972930;28;19910;-76
2023/08/04 03:01:00;;;;;;;2.70;1.90;;;25.10;93.40;;;;;;4975058;28;20388;-77
2023/08/04 03:05:59;;;;;;;2.17;1.50;;;25.00;93.40;;;;;;4966553;28;20054;-77
2023/08/04 03:08:26;;;;;;;2.38;1.55;;;25.00;93.40;;;;;;4976490;28;20030;-76
2023/08/04 03:10:51;;;;;;;3.03;2.17;;;25.10;93.40;;;;;;4975703;28;20029;-75
2023/08/04 03:13:17;;;;;;;3.28;1.50;;;25.10;93.40;;;;;;4961380;28;20402;-75
2023/08/04 03:15:43;;;;;;;7.80;2.35;;;25.10;93.30;;;;;;4962658;28;20079;-76
2023/08/04 03:18:08;;;;;;;2.42;1.75;;;25.10;93.30;;;;;;4971241;28;20031;-75
2023/08/04 03:20:39;;;;;;;2.42;1.60;;;25.20;93.30;;;;;;4966418;28;20030;-78
2023/08/04 03:23:07;;;;;;;1.95;1.65;;;25.20;93.40;;;;;;4961857;28;20051;-78
2023/08/04 03:25:33;;;;;;;2.55;1.67;;;25.20;93.30;;;;;;4963531;28;20481;-76
2023/08/04 03:28:00;;;;;;;2.45;1.52;;;25.30;93.30;;;;;;4970126;28;20043;-77
2023/08/04 03:30:26;;;;;;;1.92;1.33;;;25.30;93.30;;;;;;4946152;28;20031;-77
2023/08/04 03:32:52;;;;;;;2.10;1.45;;;25.30;93.20;;;;;;4966658;28;20061;-76
2023/08/04 03:35:17;;;;;;;1.70;1.30;;;25.30;93.10;;;;;;4976405;28;20078;-76
2023/08/04 03:37:43;;;;;;;2.45;1.55;;;25.40;93.10;;;;;;4975072;28;20047;-77
2023/08/04 03:40:10;;;;;;;2.78;1.45;;;25.40;93.10;;;;;;4972828;28;20065;-77
2023/08/04 03:42:38;;;;;;;1.88;1.50;;;25.40;93.10;;;;;;4962278;28;20035;-77
2023/08/04 03:45:06;;;;;;;1.55;1.40;;;25.40;93.00;;;;;;4972380;28;20025;-77
2023/08/04 03:47:33;;;;;;;2.22;1.33;;;25.40;93.00;;;;;;4974946;28;20042;-75
2023/08/04 03:49:58;;;;;;;2.03;1.58;;;25.40;93.00;;;;;;4961177;28;20106;-76
2023/08/04 03:52:24;;;;;;;4.68;2.00;;;25.40;93.00;;;;;;4974316;28;20107;-75
2023/08/04 03:54:50;;;;;;;2.67;1.98;;;25.40;93.00;;;;;;4966829;28;20392;-74
2023/08/04 03:57:16;;;;;;;3.60;1.60;;;25.40;92.90;;;;;;4973851;28;20031;-75
2023/08/04 03:59:41;;;;;;;3.30;1.65;;;25.50;93.00;;;;;;4965595;28;20077;-75
2023/08/04 04:02:07;;;;;;;2.28;1.60;;;25.50;93.00;;;;;;4965527;28;20389;-75
2023/08/04 04:04:33;;;;;;;3.35;1.65;;;25.50;93.00;;;;;;4972864;28;20125;-76
2023/08/04 04:06:59;;;;;;;2.50;1.73;;;25.40;93.00;;;;;;4975510;28;20039;-76
2023/08/04 04:09:24;;;;;;;2.42;1.88;;;25.50;93.00;;;;;;4975282;28;20098;-76
2023/08/04 04:11:50;;;;;;;4.18;1.55;;;25.50;93.00;;;;;;4973636;28;20035;-76
2023/08/04 04:14:16;;;;;;;3.35;1.63;;;25.50;93.00;;;;;;4974666;28;20034;-76
2023/08/04 04:16:41;;;;;;;4.10;2.08;;;25.50;93.10;;;;;;4975646;28;20492;-76
2023/08/04 04:19:07;;;;;;;2.97;1.50;;;25.50;93.00;;;;;;4974347;28;20369;-76
2023/08/04 04:21:34;;;;;;;2.15;1.52;;;25.50;93.00;;;;;;4974649;28;20031;-75
2023/08/04 04:23:59;;;;;;;2.42;2.05;;;25.50;93.00;;;;;;4961148;28;20026;-75
2023/08/04 04:26:25;;;;;;;2.67;1.52;;;25.50;93.00;;;;;;4956381;29;20113;-74
2023/08/04 04:28:51;;;;;;;4.32;2.40;;;25.50;93.00;;;;;;4961313;28;20030;-74
2023/08/04 04:31:16;;;;;;;6.25;2.58;;;25.40;93.00;;;;;;4974927;28;20089;-76
2023/08/04 04:33:42;;;;;;;1.60;1.50;;;25.30;93.10;;;;;;4965260;28;20022;-75
2023/08/04 04:36:08;;;;;;;5.53;1.67;;;25.30;93.10;;;;;;4957933;28;20500;-75
2023/08/04 04:38:33;;;;;;;2.45;1.88;;;25.30;93.20;;;;;;4975082;28;20102;-75
2023/08/04 04:41:01;;;;;;;2.00;1.73;;;25.20;93.30;;;;;;4957653;28;20023;-75
2023/08/04 04:43:27;;;;;;;2.38;1.90;;;25.30;93.30;;;;;;4967560;28;20027;-74
2023/08/04 04:45:54;;;;;;;4.05;1.80;;;25.30;93.30;;;;;;4974545;28;20031;-75
2023/08/04 04:48:21;;;;;;;2.60;1.63;;;25.30;93.30;;;;;;4975685;28;20042;-75
2023/08/04 04:50:47;;;;;;;3.83;1.85;;;25.40;93.30;;;;;;4971060;28;20031;-75
2023/08/04 04:53:13;;;;;;;3.28;1.70;;;25.40;93.20;;;;;;4969208;28;20086;-75
2023/08/04 04:55:38;;;;;;;1.90;1.65;;;25.40;93.40;;;;;;4968013;28;20540;-76
2023/08/04 04:58:04;;;;;;;2.35;1.67;;;25.40;93.20;;;;;;4974923;28;20113;-76
2023/08/04 05:00:33;;;;;;;3.78;1.80;;;25.40;93.20;;;;;;4971775;28;20031;-83
2023/08/04 05:02:59;;;;;;;4.93;2.15;;;25.50;93.50;;;;;;4942228;28;20027;-83
2023/08/04 05:05:24;;;;;;;3.95;1.70;;;25.50;93.30;;;;;;4964528;28;20042;-84
2023/08/04 05:07:50;;;;;;;11.48;2.42;;;25.50;93.20;;;;;;4974168;28;20081;-82
2023/08/04 05:10:15;;;;;;;2.83;1.95;;;25.60;93.10;;;;;;4966220;28;20062;-83
2023/08/04 05:12:41;;;;;;;2.80;1.80;;;25.60;93.10;;;;;;4971411;28;20047;-83
2023/08/04 05:15:08;;;;;;;3.20;1.90;;;25.60;93.10;;;;;;4955868;29;20058;-84
2023/08/04 05:17:35;;;;;;;2.40;1.80;;;25.60;93.10;;;;;;4971568;28;20050;-84
2023/08/04 05:20:02;;;;;;;4.30;2.00;;;25.70;93.10;;;;;;4943618;28;20031;-85
2023/08/04 05:22:28;;;;;;;3.88;2.20;;;25.70;93.10;;;;;;4970546;28;20041;-75
2023/08/04 05:24:54;;;;;;;6.15;1.85;;;25.70;93.00;;;;;;4971448;28;20064;-76
2023/08/04 05:27:20;;;;;;;2.05;1.80;;;25.70;93.00;;;;;;4970233;28;20074;-76
2023/08/04 05:29:45;;;;;;;3.97;2.30;;;25.70;93.00;;;;;;4955636;28;20054;-76
2023/08/04 05:32:11;;;;;;;3.70;2.50;;;25.70;93.00;;;;;;4968663;28;20031;-76
2023/08/04 05:34:37;;;;;;;3.90;1.65;;;25.70;93.10;;;;;;4967852;28;20476;-76
2023/08/04 05:37:02;;;;;;;3.25;1.65;;;25.70;93.10;;;;;;4967728;28;20039;-76
2023/08/04 05:39:28;;;;;;;2.42;1.80;;;25.70;93.20;;;;;;4957435;28;20045;-76
2023/08/04 05:41:54;;;;;;;3.53;1.75;;;25.70;93.20;;;;;;4963606;28;20055;-78
2023/08/04 05:44:22;;;;;;;4.88;2.30;;;25.80;93.20;;;;;;4963063;28;20070;-78
2023/08/04 05:46:48;;;;;;;3.17;1.83;;;25.80;93.20;;;;;;4940105;28;20587;-83
2023/08/04 05:49:13;;;;;;;4.13;1.98;;;25.80;93.20;;;;;;4970286;28;20102;-83
2023/08/04 05:51:39;;;;;;;4.05;2.17;;;25.80;93.20;;;;;;4964226;28;20097;-84
2023/08/04 05:54:05;;;;;;;3.80;1.83;;;25.80;93.20;;;;;;4964456;28;20498;-84
2023/08/04 05:56:30;;;;;;;4.93;2.40;;;25.80;93.20;;;;;;4968348;28;20043;-83
2023/08/04 05:58:56;;;;;;;5.32;2.40;;;25.90;93.20;;;;;;4970457;28;20031;-85
2023/08/04 06:01:22;;;;;;;3.38;2.10;;;25.80;93.20;;;;;;4973542;28;20496;-86
2023/08/04 06:03:47;;;;;;;5.07;2.53;;;25.80;93.20;;;;;;4974727;28;20353;-86
2023/08/04 06:06:13;;;;;;;3.25;2.13;;;25.80;93.30;;;;;;4957286;28;20039;-84
2023/08/04 06:08:39;;;;;;;3.28;2.08;;;25.80;93.30;;;;;;4969145;28;20044;-84
2023/08/04 06:11:04;;;;;;;3.22;1.60;;;25.70;93.30;;;;;;4965068;28;20106;-85
2023/08/04 06:13:30;;;;;;;3.45;2.30;;;25.80;93.40;;;;;;4974752;28;20353;-85
2023/08/04 06:15:56;;;;;;;7.35;2.05;;;25.80;93.40;;;;;;4963556;28;20564;-84
2023/08/04 06:18:21;;;;;;;6.45;1.98;;;25.80;93.40;;;;;;4973006;28;20465;-84
2023/08/04 06:20:47;;;;;;;4.40;2.50;;;25.80;93.50;;;;;;4965798;28;20401;-85
2023/08/04 06:23:13;;;;;;;6.05;2.10;;;25.80;93.50;;;;;;4967303;28;20150;-83
2023/08/04 06:25:39;;;;;;;3.83;1.80;;;25.80;93.60;;;;;;4970981;28;20023;-83
2023/08/04 06:28:05;;;;;;;4.03;1.90;;;25.80;93.60;;;;;;4973810;28;20500;-83
2023/08/04 06:30:31;;;;;;;2.95;1.70;;;25.90;93.70;;;;;;4969609;28;20043;-85
2023/08/04 06:32:56;;;;;;;3.78;2.20;;;25.80;93.70;;;;;;4973586;28;20382;-84
2023/08/04 06:35:22;;;;;;;7.25;2.65;;;25.90;93.80;;;;;;4971423;28;20034;-84
2023/08/04 06:37:48;;;;;;;3.53;2.40;;;25.90;93.80;;;;;;4949101;28;20085;-84
2023/08/04 06:40:14;;;;;;;6.00;2.28;;;26.00;93.80;;;;;;4962126;28;20022;-84
2023/08/04 06:42:39;;;;;;;5.80;1.92;;;26.10;93.80;;;;;;4974803;28;20074;-84
2023/08/04 06:45:06;;;;;;;5.03;2.72;;;26.20;93.70;;;;;;4973556;28;20023;-84
2023/08/04 06:47:32;;;;;;;3.85;2.03;;;26.30;93.70;;;;;;4965425;28;20161;-84
2023/08/04 06:49:58;;;;;;;7.80;2.10;;;26.40;93.70;;;;;;4965894;28;20102;-84
2023/08/04 06:52:23;;;;;;;3.45;2.10;;;26.50;93.60;;;;;;4961865;28;20110;-83
2023/08/04 06:54:49;;;;;;;6.65;2.50;;;26.60;93.50;;;;;;4975094;28;20035;-84
2023/08/04 06:57:15;;;;;;;5.57;2.20;;;26.70;93.40;;;;;;4974033;28;20035;-84
2023/08/04 06:59:41;;;;;;;4.55;2.55;;;26.90;93.40;;;;;;4963628;28;20023;-84
2023/08/04 07:02:07;;;;;;;4.35;2.28;;;26.90;93.10;;;;;;4967128;28;20150;-84
2023/08/04 07:04:32;;;;;;;5.15;2.20;;;27.00;93.00;;;;;;4963181;28;20412;-84
2023/08/04 07:06:58;;;;;;;4.22;2.35;;;27.10;92.90;;;;;;4967317;28;20121;-84
2023/08/04 07:09:25;;;;;;;3.97;2.38;;;27.10;92.90;;;;;;4958244;28;20035;-76
2023/08/04 07:11:51;;;;;;;3.63;2.15;;;27.20;92.80;;;;;;4954886;28;20067;-76
2023/08/04 07:14:17;;;;;;;6.28;2.08;;;27.20;92.80;;;;;;4967583;28;20034;-77
2023/08/04 07:16:46;;;;;;;4.65;2.10;;;27.20;92.80;;;;;;4957177;29;20027;-77
2023/08/04 07:19:12;;;;;;;5.07;1.77;;;27.30;92.80;;;;;;4959791;28;20734;-77
2023/08/04 07:21:38;;;;;;;4.50;1.98;;;27.30;92.70;;;;;;4964776;28;20023;-77
2023/08/04 07:24:04;;;;;;;3.80;2.05;;;27.30;92.60;;;;;;4966739;28;20023;-77
2023/08/04 07:26:31;;;;;;;7.53;2.60;;;27.40;92.50;;;;;;4971679;28;20026;-78
2023/08/04 07:28:57;;;;;;;13.95;8.52;;;27.40;92.40;;;;;;4974204;28;20033;-87
2023/08/04 07:31:23;;;;;;;12.18;9.13;;;27.50;92.50;;;;;;4968683;28;20030;-86
2023/08/04 07:33:49;;;;;;;7.55;4.00;;;27.50;92.50;;;;;;4965373;28;20054;-86
2023/08/04 07:36:15;;;;;;;6.50;2.47;;;27.60;92.30;;;;;;4950509;28;20121;-84
2023/08/04 07:38:41;;;;;;;4.75;2.35;;;27.60;92.00;;;;;;4972273;28;20031;-85
2023/08/04 07:41:07;;;;;;;3.17;2.25;;;27.60;92.10;;;;;;4970260;28;20023;-84
2023/08/04 07:43:32;;;;;;;5.95;2.97;;;27.60;92.10;;;;;;4970104;28;20350;-85
2023/08/04 07:45:58;;;;;;;8.30;3.15;;;27.70;92.10;;;;;;4963155;28;20030;-77
2023/08/04 07:48:24;;;;;;;6.38;3.38;;;27.80;91.80;;;;;;4971718;28;20519;-77
2023/08/04 07:50:51;;;;;;;4.10;2.15;;;27.80;91.80;;;;;;4976901;28;20035;-77
2023/08/04 07:53:17;;;;;;;5.65;2.25;;;27.90;91.90;;;;;;4972415;28;20092;-77
2023/08/04 07:55:55;;;;;;;4.40;2.80;;;27.90;91.80;;;;;;4977705;28;20036;-84
2023/08/04 07:58:20;;;;;;;4.15;1.85;;;28.00;91.60;;;;;;4987184;28;20039;-84
2023/08/04 08:00:46;;;;;;;3.25;2.17;;;28.00;91.50;;;;;;4971949;28;20488;-83
2023/08/04 08:03:12;;;;;;;4.22;2.10;;;28.00;91.30;;;;;;4972442;28;20069;-87
2023/08/04 08:05:38;;;;;;;6.25;2.20;;;27.90;91.30;;;;;;4965416;28;20062;-81
2023/08/04 08:08:04;;;;;;;4.60;2.30;;;27.90;91.40;;;;;;4956185;29;20031;-81
2023/08/04 08:10:30;;;;;;;6.35;2.20;;;28.00;91.40;;;;;;4959724;28;20041;-82
2023/08/04 08:12:56;;;;;;;3.22;1.83;;;28.10;91.40;;;;;;4976163;28;20469;-81
2023/08/04 08:15:21;;;;;;;3.70;2.45;;;28.10;91.40;;;;;;4975298;28;20081;-80
2023/08/04 08:17:47;;;;;;;4.95;3.00;;;28.20;91.40;;;;;;4975426;28;20038;-81
2023/08/04 08:20:13;;;;;;;9.73;2.47;;;28.20;91.20;;;;;;4974875;28;20030;-81
2023/08/04 08:22:38;;;;;;;4.40;2.42;;;28.30;91.20;;;;;;4959360;28;20026;-81
2023/08/04 08:25:05;;;;;;;3.95;2.60;;;28.40;90.90;;;;;;4986262;28;20072;-80
2023/08/04 08:27:30;;;;;;;5.82;2.60;;;28.40;91.00;;;;;;4975488;28;20030;-80
2023/08/04 08:29:56;;;;;;;3.42;2.00;;;28.50;91.10;;;;;;4976779;28;20034;-80
2023/08/04 08:32:22;;;;;;;5.18;2.70;;;28.60;91.20;;;;;;4974748;28;20085;-81
2023/08/04 08:34:48;;;;;;;3.70;2.85;;;28.60;91.10;;;;;;4975278;28;20053;-81
2023/08/04 08:37:13;;;;;;;6.13;2.15;;;28.70;90.90;;;;;;4975195;28;20464;-81
2023/08/04 08:39:39;;;;;;;7.43;2.30;;;28.80;90.90;;;;;;4958125;28;20034;-81
2023/08/04 08:42:05;;;;;;;3.30;2.15;;;28.90;91.10;;;;;;4974776;28;20054;-81
2023/08/04 08:44:30;;;;;;;5.10;2.53;;;29.00;91.00;;;;;;4975688;28;20405;-81
2023/08/04 08:46:56;;;;;;;4.93;2.17;;;29.20;90.90;;;;;;4975260;28;20034;-80
2023/08/04 08:49:28;;;;;;;3.85;2.30;;;29.30;91.00;;;;;;4975209;28;20027;-81
2023/08/04 08:51:56;;;;;;;8.25;3.33;;;29.40;90.80;;;;;;4970216;28;20027;-86
2023/08/04 08:54:22;;;;;;;4.32;2.25;;;29.40;90.30;;;;;;4967990;28;20082;-87
2023/08/04 08:56:51;;;;;;;5.18;2.30;;;29.40;90.40;;;;;;4965028;28;20031;-86
2023/08/04 08:59:18;;;;;;;6.60;2.83;;;29.40;90.50;;;;;;4960792;28;20042;-86
2023/08/04 09:01:44;;;;;;;9.38;2.40;;;29.40;90.60;;;;;;4966905;28;20014;-87
2023/08/04 09:04:10;;;;;;;5.82;2.95;;;29.40;90.50;;;;;;4963874;28;20039;-87
2023/08/04 09:06:35;;;;;;;6.57;2.40;;;29.40;90.10;;;;;;4961089;28;20038;-87
2023/08/04 09:09:02;;;;;;;4.53;2.50;;;29.40;90.20;;;;;;4972884;28;20469;-87
2023/08/04 09:11:32;;;;;;;4.07;2.38;;;29.50;90.40;;;;;;4967289;28;20078;-87
2023/08/04 09:14:00;;;;;;;5.45;2.60;;;29.60;90.50;;;;;;4957811;28;20266;-87
2023/08/04 09:16:36;;;;;;;5.03;2.88;;;29.70;90.30;;;;;;4964556;28;20027;-87
2023/08/04 09:19:07;;;;;;;5.68;2.50;;;29.80;90.10;;;;;;4949718;28;20035;-87
2023/08/04 09:21:33;;;;;;;3.83;2.03;;;29.80;89.20;;;;;;4974393;28;20026;-81
2023/08/04 09:24:01;;;;;;;3.38;2.15;;;29.80;89.00;;;;;;4961576;28;20476;-79
2023/08/04 09:26:46;;;;;;;5.72;2.40;;;29.80;88.50;;;;;;4973766;28;20030;-80
2023/08/04 09:29:13;;;;;;;4.13;1.88;;;29.80;87.80;;;;;;4961326;28;20059;-81
2023/08/04 09:31:46;;;;;;;6.43;2.30;;;29.80;87.70;;;;;;4962281;28;20124;-81
2023/08/04 09:34:12;;;;;;;7.72;2.15;;;29.80;87.50;;;;;;4956584;28;20074;-81
2023/08/04 09:36:46;;;;;;;2.85;1.80;;;29.80;87.30;;;;;;4941546;28;20031;-79
2023/08/04 09:39:13;;;;;;;2.33;1.60;;;29.80;87.20;;;;;;4971755;28;20019;-79
2023/08/04 09:41:42;;;;;;;4.07;1.73;;;29.70;87.00;;;;;;4963716;28;20054;-79
2023/08/04 09:44:09;;;;;;;3.38;1.65;;;29.70;86.10;;;;;;4971529;28;20469;-79
2023/08/04 09:46:48;;;;;;;3.10;1.60;;;29.80;85.20;;;;;;4976867;28;20077;-79
2023/08/04 09:49:14;;;;;;;6.28;1.67;;;29.80;84.30;;;;;;4972415;28;20046;-79
2023/08/04 09:51:41;;;;;;;3.05;1.92;;;29.70;83.30;;;;;;4951346;28;20022;-77
2023/08/04 09:54:08;;;;;;;2.88;1.70;;;29.60;82.40;;;;;;4963818;28;20054;-76
2023/08/04 09:56:34;;;;;;;24.60;3.55;;;29.50;81.70;;;;;;4970698;28;20054;-86
2023/08/04 09:59:00;;;;;;;4.72;1.35;;;29.40;82.10;;;;;;4950340;28;20126;-77
2023/08/04 10:01:26;;;;;;;5.45;1.75;;;29.30;81.40;;;;;;4963781;28;20097;-78
2023/08/04 10:03:55;;;;;;;7.03;1.95;;;29.30;81.40;;;;;;4969009;28;20101;-79
2023/08/04 10:06:21;;;;;;;5.17;1.77;;;29.20;81.30;;;;;;4967047;28;20026;-78
2023/08/04 10:08:49;;;;;;;5.53;1.90;;;29.20;80.30;;;;;;4972212;28;20453;-78
2023/08/04 10:11:15;;;;;;;4.28;1.95;;;29.20;79.70;;;;;;4956570;28;20038;-78
2023/08/04 10:13:44;;;;;;;7.35;2.17;;;29.20;79.60;;;;;;4972327;28;20038;-78
2023/08/04 10:16:13;;;;;;;5.78;1.75;;;29.20;79.10;;;;;;4973890;28;20114;-78
2023/08/04 10:19:06;;;;;;;3.63;2.07;;;29.20;79.10;;;;;;4975518;28;20034;-78
2023/08/04 10:21:35;;;;;;;2.25;1.42;;;29.20;79.00;;;;;;4967817;28;20591;-79
2023/08/04 10:24:06;;;;;;;5.55;1.58;;;29.20;78.80;;;;;;4964416;28;20098;-78
2023/08/04 10:26:33;;;;;;;2.92;1.35;;;29.20;77.90;;;;;;4976249;28;20062;-78
2023/08/04 10:29:01;;;;;;;3.72;1.33;;;29.20;78.30;;;;;;4971192;28;20023;-78
2023/08/04 10:31:51;;;;;;;4.55;1.85;;;29.30;78.40;;;;;;4973245;28;20082;-79
2023/08/04 10:34:17;;;;;;;3.80;1.35;;;29.40;77.30;;;;;;4966628;28;20106;-78
2023/08/04 10:37:15;;;;;;;6.00;1.65;;;29.50;78.20;;;;;;4963419;28;20150;-78
2023/08/04 10:39:56;;;;;;;5.45;1.10;;;29.70;76.50;;;;;;4970519;28;20082;-78
2023/08/04 10:42:30;;;;;;;3.80;1.40;;;29.80;74.80;;;;;;4967229;28;20031;-77
2023/08/04 10:45:06;;;;;;;7.82;2.25;;;29.80;76.00;;;;;;4969615;28;20051;-77
2023/08/04 10:47:31;;;;;;;2.83;1.50;;;29.90;75.70;;;;;;4961883;28;20057;-78
2023/08/04 10:49:58;;;;;;;3.42;1.73;;;30.00;75.80;;;;;;4964715;28;20026;-78
2023/08/04 10:52:25;;;;;;;5.40;1.30;;;30.00;75.30;;;;;;4965784;28;20109;-80
2023/08/04 10:54:52;;;;;;;8.27;1.75;;;30.10;74.50;;;;;;4965773;28;20039;-79
2023/08/04 10:57:21;;;;;;;7.80;2.10;;;30.10;74.80;;;;;;4972324;28;20034;-79
2023/08/04 10:59:51;;;;;;;3.77;1.30;;;30.20;74.70;;;;;;4971266;28;20050;-79
2023/08/04 11:02:21;;;;;;;7.43;1.55;;;30.20;74.10;;;;;;4976367;28;20022;-78
2023/08/04 11:04:47;;;;;;;3.78;1.40;;;30.20;73.40;;;;;;4969177;28;20105;-79
2023/08/04 11:07:14;;;;;;;6.53;2.05;;;30.20;72.80;;;;;;4967075;28;20023;-79
2023/08/04 11:09:41;;;;;;;12.52;1.67;;;30.20;72.60;;;;;;4969771;28;20062;-79
2023/08/04 11:12:08;;;;;;;4.50;2.10;;;30.10;72.80;;;;;;4975953;28;20023;-79
2023/08/04 11:14:35;;;;;;;4.93;1.33;;;30.10;73.10;;;;;;4948934;28;20421;-78
2023/08/04 11:17:02;;;;;;;9.13;1.77;;;30.00;72.70;;;;;;4975712;28;20051;-81
2023/08/04 11:19:32;;;;;;;11.43;1.77;;;30.00;73.20;;;;;;4962852;28;20367;-81
2023/08/04 11:22:07;;;;;;;4.70;1.70;;;30.00;71.90;;;;;;4972418;28;20457;-81
2023/08/04 11:24:33;;;;;;;6.10;1.70;;;29.90;72.40;;;;;;4961005;28;20070;-80
2023/08/04 11:26:59;;;;;;;4.60;1.30;;;29.80;72.70;;;;;;4955443;28;20043;-82
2023/08/04 11:29:25;;;;;;;6.32;1.58;;;29.80;72.80;;;;;;4965415;28;20035;-81
2023/08/04 11:31:51;;;;;;;5.03;1.05;;;29.80;72.60;;;;;;4972350;28;20302;-83
2023/08/04 11:34:17;;;;;;;7.03;1.50;;;29.80;72.10;;;;;;4971554;28;20462;-85
2023/08/04 11:36:43;;;;;;;6.20;1.52;;;29.80;72.20;;;;;;4965290;28;20035;-83
2023/08/04 11:39:09;;;;;;;6.13;1.60;;;29.80;72.00;;;;;;4964151;28;20042;-81
2023/08/04 11:41:36;;;;;;;3.83;1.30;;;29.80;72.30;;;;;;4970006;28;20062;-84
2023/08/04 11:44:02;;;;;;;5.70;2.15;;;29.80;73.00;;;;;;4963581;28;20035;-83
2023/08/04 11:46:29;;;;;;;2.90;1.23;;;29.70;73.30;;;;;;4964643;28;20374;-83
2023/08/04 11:48:55;;;;;;;4.95;1.52;;;29.70;73.60;;;;;;4961604;28;20035;-83
2023/08/04 11:51:22;;;;;;;8.32;1.48;;;29.80;73.30;;;;;;4968850;28;20122;-81
2023/08/04 11:53:49;;;;;;;2.55;1.27;;;29.80;73.20;;;;;;4976069;28;20030;-81
2023/08/04 11:56:15;;;;;;;3.50;1.30;;;29.80;72.80;;;;;;4966979;28;20330;-80
2023/08/04 11:58:43;;;;;;;5.18;1.13;;;29.90;73.30;;;;;;4974798;28;20238;-82
2023/08/04 12:01:30;;;;;;;6.05;1.60;;;30.20;73.80;;;;;;4976019;28;20957;-82
2023/08/04 12:03:56;;;;;;;3.80;1.40;;;30.60;71.90;;;;;;4958392;28;20490;-83
2023/08/04 12:06:23;;;;;;;4.10;1.40;;;30.70;71.70;;;;;;4972726;28;20038;-83
2023/08/04 12:08:53;;;;;;;3.50;1.67;;;30.80;70.70;;;;;;4974563;28;20126;-82
2023/08/04 12:11:20;;;;;;;3.25;1.40;;;30.70;70.40;;;;;;4961027;28;20039;-82
2023/08/04 12:13:47;;;;;;;3.15;1.33;;;30.70;70.60;;;;;;4958320;28;20027;-80
2023/08/04 12:16:13;;;;;;;5.50;2.13;;;30.70;70.60;;;;;;4974337;28;20035;-81
2023/08/04 12:18:41;;;;;;;5.22;1.85;;;30.60;70.60;;;;;;4993399;28;20030;-78
2023/08/04 12:21:10;;;;;;;1.55;1.17;;;30.60;70.80;;;;;;4963312;28;20032;-80
2023/08/04 12:23:37;;;;;;;4.13;1.45;;;30.50;70.70;;;;;;4977333;28;20033;-81
2023/08/04 12:26:04;;;;;;;3.22;1.45;;;30.40;70.20;;;;;;4973320;28;20035;-81
2023/08/04 12:28:30;;;;;;;4.35;1.38;;;30.40;69.40;;;;;;4974047;28;20027;-81
2023/08/04 12:30:55;;;;;;;3.80;1.60;;;30.30;69.30;;;;;;4971368;28;20042;-81
2023/08/04 12:33:21;;;;;;;3.20;1.30;;;30.30;68.90;;;;;;4988970;28;20026;-81
2023/08/04 12:35:47;;;;;;;2.58;1.40;;;30.30;69.30;;;;;;4971259;28;20077;-79
2023/08/04 12:38:12;;;;;;;5.07;1.55;;;30.20;69.50;;;;;;4968601;28;20058;-81
2023/08/04 12:40:38;;;;;;;5.35;2.22;;;30.20;70.30;;;;;;4970851;28;20535;-81
2023/08/04 12:43:04;;;;;;;2.17;1.20;;;30.20;68.80;;;;;;4979577;28;20023;-81
2023/08/04 12:45:30;;;;;;;3.00;1.60;;;30.10;69.00;;;;;;4963622;28;20026;-82
2023/08/04 12:47:55;;;;;;;5.65;1.60;;;30.10;68.90;;;;;;4967001;28;20031;-81
2023/08/04 12:50:21;;;;;;;4.55;1.67;;;30.20;69.30;;;;;;4972594;28;20090;-82